createdAt,value
2019-03-23T00:00:07.609Z,25.40
2019-03-23T00:02:36.204Z,34.67
2019-03-23T00:05:09.273Z,23.03
2019-03-23T00:07:37.994Z,28.50
2019-03-23T00:10:07.321Z,22.17
2019-03-23T00:12:35.981Z,21.47
2019-03-23T00:15:10.309Z,30.53
2019-03-23T00:17:39.035Z,21.37
2019-03-23T00:20:08.143Z,24.07
2019-03-23T00:22:36.797Z,24.53
2019-03-23T00:25:06.869Z,25.97
2019-03-23T00:27:35.532Z,24.77
2019-03-23T00:30:10.099Z,26.93
2019-03-23T00:32:38.677Z,29.63
2019-03-23T00:35:08.557Z,26.23
2019-03-23T00:37:37.071Z,30.63
2019-03-23T00:40:07.961Z,26.17
2019-03-23T00:42:36.623Z,31.80
2019-03-23T00:45:06.624Z,45.70
2019-03-23T00:47:35.189Z,36.53
2019-03-23T00:50:05.239Z,44.50
2019-03-23T00:52:33.835Z,42.07
2019-03-23T00:55:02.435Z,44.37
2019-03-23T00:57:31.002Z,44.97
2019-03-23T00:59:59.606Z,45.83
2019-03-23T01:02:28.184Z,42.63
2019-03-23T01:04:56.771Z,42.63
2019-03-23T01:07:25.338Z,47.83
2019-03-23T01:09:53.937Z,50.80
2019-03-23T01:12:22.758Z,46.50
2019-03-23T01:14:51.343Z,54.17
2019-03-23T01:17:19.917Z,53.87
2019-03-23T01:19:49.272Z,57.27
2019-03-23T01:22:17.845Z,56.23
2019-03-23T01:24:46.426Z,58.70
2019-03-23T01:27:14.999Z,61.93
2019-03-23T01:29:43.582Z,59.57
2019-03-23T01:32:12.158Z,59.40
2019-03-23T01:34:41.014Z,64.60
2019-03-23T01:37:09.585Z,70.90
2019-03-23T01:39:38.108Z,74.07
2019-03-23T01:42:09.644Z,81.47
2019-03-23T01:44:40.100Z,79.80
2019-03-23T01:47:11.016Z,81.40
2019-03-23T01:49:39.553Z,87.00
2019-03-23T01:52:08.118Z,95.63
2019-03-23T01:54:36.719Z,93.27
2019-03-23T01:57:05.558Z,96.10
2019-03-23T01:59:34.073Z,94.50
2019-03-23T02:02:02.643Z,97.67
2019-03-23T02:04:31.237Z,105.33
2019-03-23T02:06:59.816Z,113.67
2019-03-23T02:09:28.410Z,113.37
2019-03-23T02:11:56.979Z,110.80
2019-03-23T02:14:25.571Z,110.10
2019-03-23T02:16:54.216Z,114.93
2019-03-23T02:19:22.815Z,98.63
2019-03-23T02:21:51.381Z,102.20
2019-03-23T02:24:19.890Z,109.23
2019-03-23T02:26:48.646Z,107.70
2019-03-23T02:29:17.164Z,101.67
2019-03-23T02:31:46.697Z,97.57
2019-03-23T02:34:15.307Z,108.60
2019-03-23T02:36:43.871Z,104.87
2019-03-23T02:39:12.471Z,109.10
2019-03-23T02:41:41.039Z,110.50
2019-03-23T02:44:09.621Z,108.47
2019-03-23T02:46:38.271Z,112.07
2019-03-23T02:49:07.184Z,119.72
2019-03-23T02:51:35.762Z,112.23
2019-03-23T02:54:04.411Z,119.93
2019-03-23T02:56:32.988Z,111.10
2019-03-23T02:59:01.575Z,120.67
2019-03-23T03:01:30.146Z,113.13
2019-03-23T03:03:58.673Z,128.40
2019-03-23T03:06:27.252Z,117.60
2019-03-23T03:08:55.827Z,127.77
2019-03-23T03:11:24.426Z,134.30
2019-03-23T03:13:53.017Z,117.80
2019-03-23T03:16:21.595Z,119.40
2019-03-23T03:18:50.178Z,119.27
2019-03-23T03:21:18.766Z,117.27
2019-03-23T03:23:47.340Z,118.27
2019-03-23T03:26:15.940Z,119.53
2019-03-23T03:28:44.507Z,130.50
2019-03-23T03:31:13.179Z,129.30
2019-03-23T03:33:41.754Z,124.73
2019-03-23T03:36:10.349Z,136.30
2019-03-23T03:38:38.911Z,131.50
2019-03-23T03:41:07.608Z,131.60
2019-03-23T03:43:36.192Z,137.43
2019-03-23T03:46:04.777Z,126.80
2019-03-23T03:48:33.351Z,128.87
2019-03-23T03:51:02.014Z,126.13
2019-03-23T03:53:30.603Z,126.47
2019-03-23T03:55:59.183Z,125.57
2019-03-23T03:58:27.765Z,129.10
2019-03-23T04:00:56.374Z,140.00
2019-03-23T04:03:24.950Z,138.00
2019-03-23T04:05:53.524Z,123.93
2019-03-23T04:08:22.106Z,132.27
2019-03-23T04:10:50.890Z,135.73
2019-03-23T04:13:19.453Z,137.27
2019-03-23T04:15:48.123Z,138.13
2019-03-23T04:18:16.687Z,143.43
2019-03-23T04:20:45.284Z,141.83
2019-03-23T04:23:13.853Z,129.73
2019-03-23T04:25:42.449Z,122.57
2019-03-23T04:28:11.029Z,139.70
2019-03-23T04:30:39.618Z,132.00
2019-03-23T04:33:08.130Z,137.27
2019-03-23T04:35:36.725Z,135.50
2019-03-23T04:38:05.363Z,137.10
2019-03-23T04:40:33.971Z,139.63
2019-03-23T04:43:02.623Z,133.70
2019-03-23T04:45:31.190Z,126.27
2019-03-23T04:47:59.962Z,151.90
2019-03-23T04:50:28.548Z,142.07
2019-03-23T04:52:57.045Z,132.37
2019-03-23T04:55:25.631Z,146.87
2019-03-23T04:57:54.205Z,136.47
2019-03-23T05:00:22.702Z,135.70
2019-03-23T05:02:51.301Z,136.87
2019-03-23T05:05:19.903Z,134.03
2019-03-23T05:07:48.476Z,137.37
2019-03-23T05:10:17.051Z,142.77
2019-03-23T05:12:45.722Z,138.40
2019-03-23T05:15:14.425Z,132.70
2019-03-23T05:17:42.984Z,124.50
2019-03-23T05:20:13.718Z,117.80
2019-03-23T05:22:42.305Z,128.87
2019-03-23T05:25:13.953Z,127.60
2019-03-23T05:27:42.467Z,128.83
2019-03-23T05:30:11.097Z,126.33
2019-03-23T05:32:39.691Z,125.50
2019-03-23T05:35:08.254Z,129.77
2019-03-23T05:37:36.849Z,127.03
2019-03-23T05:40:07.284Z,135.53
2019-03-23T05:42:36.066Z,135.87
2019-03-23T05:45:06.074Z,147.07
2019-03-23T05:47:34.683Z,119.23
2019-03-23T05:50:04.019Z,134.13
2019-03-23T05:52:34.246Z,129.93
2019-03-23T05:55:03.096Z,122.80
2019-03-23T05:57:31.686Z,143.37
2019-03-23T06:00:01.185Z,131.97
2019-03-23T06:02:31.347Z,141.33
2019-03-23T06:04:59.918Z,128.73
2019-03-23T06:07:28.445Z,149.80
2019-03-23T06:09:58.647Z,132.83
2019-03-23T06:12:27.869Z,127.53
2019-03-23T06:14:56.383Z,134.73
2019-03-23T06:17:24.974Z,134.63
2019-03-23T06:19:53.549Z,133.30
2019-03-23T06:22:22.061Z,122.27
2019-03-23T06:24:50.562Z,129.77
2019-03-23T06:27:19.078Z,128.63
2019-03-23T06:29:47.642Z,132.57
2019-03-23T06:32:16.164Z,131.20
2019-03-23T06:34:44.730Z,141.83
2019-03-23T06:37:13.326Z,131.83
2019-03-23T06:39:41.897Z,145.43
2019-03-23T06:42:10.499Z,136.03
2019-03-23T06:44:39.081Z,147.60
2019-03-23T06:47:07.675Z,136.67
2019-03-23T06:49:36.253Z,141.17
2019-03-23T06:52:05.474Z,143.30
2019-03-23T06:54:34.050Z,135.83
2019-03-23T06:57:02.645Z,139.07
2019-03-23T06:59:31.227Z,143.83
2019-03-23T07:01:59.745Z,142.40
2019-03-23T07:04:28.408Z,139.07
2019-03-23T07:06:58.081Z,148.23
2019-03-23T07:09:26.583Z,153.20
2019-03-23T07:11:55.187Z,140.37
2019-03-23T07:14:23.749Z,133.93
2019-03-23T07:16:52.279Z,139.23
2019-03-23T07:19:20.847Z,133.97
2019-03-23T07:21:49.362Z,129.63
2019-03-23T07:24:17.931Z,128.30
2019-03-23T07:26:46.498Z,131.90
2019-03-23T07:29:15.278Z,134.53
2019-03-23T07:31:43.866Z,133.57
2019-03-23T07:34:12.435Z,121.87
2019-03-23T07:36:40.950Z,114.20
2019-03-23T07:39:09.475Z,125.90
2019-03-23T07:41:38.149Z,125.10
2019-03-23T07:44:06.778Z,113.23
2019-03-23T07:46:35.922Z,111.20
2019-03-23T07:49:04.585Z,111.83
2019-03-23T07:51:34.422Z,114.93
2019-03-23T07:54:03.017Z,124.40
2019-03-23T07:56:31.595Z,111.00
2019-03-23T07:59:00.185Z,112.20
2019-03-23T08:01:28.686Z,116.50
2019-03-23T08:03:57.854Z,104.47
2019-03-23T08:06:26.358Z,105.77
2019-03-23T08:08:55.071Z,115.17
2019-03-23T08:11:23.600Z,111.00
2019-03-23T08:13:52.246Z,104.00
2019-03-23T08:16:20.786Z,106.67
2019-03-23T08:18:49.390Z,105.93
2019-03-23T08:21:18.697Z,95.80
2019-03-23T08:23:47.734Z,99.00
2019-03-23T08:26:17.337Z,97.70
2019-03-23T08:28:48.264Z,96.60
2019-03-23T08:31:17.104Z,99.20
2019-03-23T08:33:47.416Z,92.17
2019-03-23T08:36:15.987Z,88.13
2019-03-23T08:38:44.862Z,93.97
2019-03-23T08:41:13.428Z,90.50
2019-03-23T08:43:42.699Z,89.33
2019-03-23T08:46:11.310Z,89.97
2019-03-23T08:48:39.915Z,84.77
2019-03-23T08:51:08.773Z,85.97
2019-03-23T08:53:38.112Z,94.20
2019-03-23T08:56:06.692Z,90.17
2019-03-23T08:58:34.199Z,91.07
2019-03-23T09:01:02.774Z,80.10
2019-03-23T09:03:31.296Z,80.03
2019-03-23T09:05:59.900Z,85.53
2019-03-23T09:08:28.490Z,87.93
2019-03-23T09:10:57.055Z,75.03
2019-03-23T09:13:25.997Z,79.47
2019-03-23T09:15:54.565Z,80.60
2019-03-23T09:18:23.094Z,79.63
2019-03-23T09:20:51.729Z,83.17
2019-03-23T09:23:20.373Z,74.43
2019-03-23T09:25:49.736Z,83.90
2019-03-23T09:28:19.384Z,70.83
2019-03-23T09:30:48.023Z,67.67
2019-03-23T09:33:20.009Z,70.03
2019-03-23T09:35:48.675Z,72.50
2019-03-23T09:38:17.263Z,69.17
2019-03-23T09:40:45.841Z,70.37
2019-03-23T09:43:14.428Z,68.43
2019-03-23T09:45:43.014Z,74.50
2019-03-23T09:48:11.594Z,73.57
2019-03-23T09:50:40.170Z,67.70
2019-03-23T09:53:08.755Z,74.53
2019-03-23T09:55:37.245Z,67.17
2019-03-23T09:58:05.843Z,65.53
2019-03-23T10:00:34.421Z,65.73
2019-03-23T10:03:03.331Z,69.23
2019-03-23T10:05:31.917Z,62.37
2019-03-23T10:08:00.430Z,60.37
2019-03-23T10:10:28.930Z,60.53
2019-03-23T10:12:57.507Z,60.17
2019-03-23T10:15:26.098Z,57.97
2019-03-23T10:17:54.606Z,59.50
2019-03-23T10:20:24.225Z,61.27
2019-03-23T10:22:52.805Z,61.83
2019-03-23T10:25:21.414Z,56.73
2019-03-23T10:27:50.009Z,62.77
2019-03-23T10:30:18.667Z,61.50
2019-03-23T10:32:47.229Z,63.77
2019-03-23T10:35:15.830Z,69.93
2019-03-23T10:37:44.409Z,60.63
2019-03-23T10:40:13.442Z,62.80
2019-03-23T10:42:45.035Z,61.87
2019-03-23T10:45:14.083Z,61.87
2019-03-23T10:47:42.720Z,60.70
2019-03-23T10:50:11.381Z,65.67
2019-03-23T10:52:39.951Z,61.57
2019-03-23T10:55:08.673Z,56.73
2019-03-23T10:57:37.328Z,60.27
2019-03-23T11:00:11.840Z,60.37
2019-03-23T11:02:40.424Z,57.77
2019-03-23T11:05:09.349Z,53.50
2019-03-23T11:07:37.862Z,60.17
2019-03-23T11:10:11.908Z,57.53
2019-03-23T11:12:40.636Z,56.10
2019-03-23T11:15:10.139Z,61.80
2019-03-23T11:17:38.710Z,56.70
2019-03-23T11:20:12.190Z,58.00
2019-03-23T11:22:40.766Z,58.50
2019-03-23T11:25:09.827Z,59.40
2019-03-23T11:27:38.410Z,59.60
2019-03-23T11:30:09.699Z,55.60
2019-03-23T11:32:38.411Z,57.27
2019-03-23T11:35:08.145Z,58.73
2019-03-23T11:37:37.727Z,54.53
2019-03-23T11:40:09.942Z,55.33
2019-03-23T11:42:48.778Z,52.97
2019-03-23T11:45:09.786Z,53.03
2019-03-23T11:47:39.690Z,53.23
2019-03-23T11:50:09.246Z,55.83
2019-03-23T11:52:40.347Z,59.27
2019-03-23T11:55:09.467Z,54.30
2019-03-23T11:57:38.091Z,52.80
2019-03-23T12:00:12.254Z,57.17
2019-03-23T12:02:42.281Z,54.37
2019-03-23T12:05:11.014Z,53.20
2019-03-23T12:07:41.316Z,55.23
2019-03-23T12:10:12.659Z,50.20
2019-03-23T12:12:41.306Z,54.40
2019-03-23T12:15:12.149Z,56.10
2019-03-23T12:17:40.875Z,49.40
2019-03-23T12:20:09.797Z,54.00
2019-03-23T12:22:38.402Z,49.50
2019-03-23T12:25:07.357Z,49.77
2019-03-23T12:27:35.951Z,54.13
2019-03-23T12:30:07.787Z,51.43
2019-03-23T12:32:36.411Z,50.07
2019-03-23T12:35:07.368Z,46.97
2019-03-23T12:37:36.052Z,51.07
2019-03-23T12:40:06.406Z,48.73
2019-03-23T12:42:35.043Z,51.20
2019-03-23T12:45:04.668Z,53.30
2019-03-23T12:47:33.242Z,49.23
2019-03-23T12:50:01.757Z,47.73
2019-03-23T12:52:30.275Z,47.37
2019-03-23T12:54:58.830Z,43.20
2019-03-23T12:57:27.549Z,43.93
2019-03-23T12:59:56.131Z,50.00
2019-03-23T13:02:24.726Z,48.93
2019-03-23T13:04:53.289Z,50.57
2019-03-23T13:07:21.804Z,49.20
2019-03-23T13:09:50.321Z,50.33
2019-03-23T13:12:18.922Z,50.70
2019-03-23T13:14:47.494Z,49.80
2019-03-23T13:17:16.125Z,56.40
2019-03-23T13:19:44.708Z,50.20
2019-03-23T13:22:13.575Z,55.57
2019-03-23T13:24:42.210Z,49.97
2019-03-23T13:27:11.374Z,50.60
2019-03-23T13:29:39.890Z,48.43
2019-03-23T13:32:09.060Z,54.23
2019-03-23T13:34:40.431Z,51.17
2019-03-23T13:37:09.028Z,53.20
2019-03-23T13:39:37.609Z,53.27
2019-03-23T13:42:08.241Z,49.73
2019-03-23T13:44:36.810Z,49.27
2019-03-23T13:47:05.423Z,50.77
2019-03-23T13:49:33.997Z,52.60
2019-03-23T13:52:02.521Z,52.67
2019-03-23T13:54:31.103Z,52.57
2019-03-23T13:56:59.766Z,50.90
2019-03-23T13:59:28.341Z,50.33
2019-03-23T14:01:56.982Z,54.27
2019-03-23T14:04:25.563Z,54.13
2019-03-23T14:06:54.245Z,48.90
2019-03-23T14:09:22.816Z,53.77
2019-03-23T14:11:55.295Z,51.83
2019-03-23T14:14:21.642Z,49.80
2019-03-23T14:16:50.164Z,55.77
2019-03-23T14:19:18.803Z,53.93
2019-03-23T14:21:47.402Z,50.97
2019-03-23T14:24:16.042Z,54.20
2019-03-23T14:26:44.574Z,51.60
2019-03-23T14:29:13.725Z,50.80
2019-03-23T14:31:42.323Z,53.80
2019-03-23T14:34:11.006Z,54.17
2019-03-23T14:36:39.882Z,52.50
2019-03-23T14:39:08.449Z,55.13
2019-03-23T14:41:37.949Z,56.73
2019-03-23T14:44:06.521Z,54.17
2019-03-23T14:46:35.370Z,55.97
2019-03-23T14:49:03.933Z,53.70
2019-03-23T14:51:32.533Z,55.20
2019-03-23T14:54:01.092Z,52.43
2019-03-23T14:56:31.622Z,56.23
2019-03-23T14:59:00.562Z,52.83
2019-03-23T15:01:29.334Z,51.87
2019-03-23T15:03:57.903Z,53.67
2019-03-23T15:06:26.505Z,49.80
2019-03-23T15:08:55.751Z,50.67
2019-03-23T15:11:24.450Z,49.30
2019-03-23T15:13:53.278Z,57.77
2019-03-23T15:16:24.726Z,51.97
2019-03-23T15:18:53.463Z,47.37
2019-03-23T15:21:23.778Z,56.20
2019-03-23T15:23:53.323Z,54.50
2019-03-23T15:26:22.470Z,49.93
2019-03-23T15:28:52.718Z,52.17
2019-03-23T15:31:24.054Z,50.70
2019-03-23T15:33:52.622Z,53.97
2019-03-23T15:36:21.783Z,50.03
2019-03-23T15:38:50.273Z,54.47
2019-03-23T15:41:22.082Z,53.87
2019-03-23T15:43:51.403Z,55.30
2019-03-23T15:46:20.066Z,55.33
2019-03-23T15:48:48.638Z,56.57
2019-03-23T15:51:17.802Z,54.17
2019-03-23T15:53:47.914Z,53.80
2019-03-23T15:56:16.508Z,56.00
2019-03-23T15:58:45.008Z,59.70
2019-03-23T16:01:13.673Z,56.40
2019-03-23T16:03:42.503Z,54.90
2019-03-23T16:06:11.095Z,53.70
2019-03-23T16:08:39.671Z,54.87
2019-03-23T16:11:08.275Z,57.70
2019-03-23T16:13:36.843Z,58.13
2019-03-23T16:16:05.354Z,61.67
2019-03-23T16:18:35.398Z,53.77
2019-03-23T16:21:04.107Z,53.90
2019-03-23T16:23:32.943Z,55.43
2019-03-23T16:26:01.530Z,61.67
2019-03-23T16:28:30.106Z,60.53
2019-03-23T16:30:58.629Z,59.63
2019-03-23T16:33:27.201Z,64.20
2019-03-23T16:35:55.714Z,59.77
2019-03-23T16:38:24.310Z,55.83
2019-03-23T16:40:52.902Z,51.23
2019-03-23T16:43:22.033Z,51.00
2019-03-23T16:45:50.534Z,52.33
2019-03-23T16:48:19.044Z,46.83
2019-03-23T16:50:47.610Z,47.43
2019-03-23T16:53:16.312Z,41.67
2019-03-23T16:55:45.190Z,44.37
2019-03-23T16:58:16.551Z,43.57
2019-03-23T17:00:45.157Z,46.37
2019-03-23T17:03:13.709Z,46.77
2019-03-23T17:05:42.630Z,46.10
2019-03-23T17:08:11.148Z,43.53
2019-03-23T17:10:40.047Z,44.30
2019-03-23T17:13:08.570Z,49.17
2019-03-23T17:15:37.139Z,44.30
2019-03-23T17:18:05.868Z,41.80
2019-03-23T17:20:34.678Z,41.40
2019-03-23T17:23:03.193Z,42.73
2019-03-23T17:25:31.769Z,38.43
2019-03-23T17:28:00.377Z,41.57
2019-03-23T17:30:28.930Z,42.20
2019-03-23T17:32:57.859Z,42.57
2019-03-23T17:35:26.436Z,38.03
2019-03-23T17:37:55.022Z,41.13
2019-03-23T17:40:23.765Z,39.77
2019-03-23T17:42:52.355Z,41.00
2019-03-23T17:45:20.854Z,40.73
2019-03-23T17:47:49.455Z,39.43
2019-03-23T17:50:18.031Z,36.37
2019-03-23T17:52:47.047Z,34.17
2019-03-23T17:55:17.084Z,24.77
2019-03-23T17:57:45.601Z,26.13
2019-03-23T18:00:14.481Z,25.53
2019-03-23T18:02:43.314Z,19.47
2019-03-23T18:05:12.315Z,19.17
2019-03-23T18:07:40.894Z,18.03
2019-03-23T18:10:09.906Z,16.80
2019-03-23T18:12:38.846Z,16.23
2019-03-23T18:15:10.914Z,16.23
2019-03-23T18:17:39.684Z,14.67
2019-03-23T18:20:08.697Z,15.93
2019-03-23T18:22:37.411Z,15.37
2019-03-23T18:25:07.273Z,13.60
2019-03-23T18:27:36.061Z,14.43
2019-03-23T18:30:16.847Z,13.63
2019-03-23T18:32:45.767Z,15.43
2019-03-23T18:35:17.231Z,15.43
2019-03-23T18:37:47.173Z,17.20
2019-03-23T18:40:16.223Z,22.10
2019-03-23T18:42:44.808Z,16.87
2019-03-23T18:45:13.514Z,16.20
2019-03-23T18:47:42.357Z,14.30
2019-03-23T18:50:11.254Z,14.87
2019-03-23T18:52:39.833Z,16.57
2019-03-23T18:55:08.754Z,16.67
2019-03-23T18:57:37.341Z,15.93
2019-03-23T19:00:07.342Z,14.83
2019-03-23T19:02:36.169Z,14.70
2019-03-23T19:05:06.066Z,14.70
2019-03-23T19:07:34.650Z,16.27
2019-03-23T19:10:03.651Z,13.83
2019-03-23T19:12:33.010Z,16.43
2019-03-23T19:15:01.751Z,16.47
2019-03-23T19:17:30.917Z,15.60
2019-03-23T19:20:01.220Z,13.53
2019-03-23T19:22:29.826Z,16.07
2019-03-23T19:25:00.604Z,14.53
2019-03-23T19:27:30.581Z,15.47
2019-03-23T19:30:03.067Z,16.03
2019-03-23T19:32:35.017Z,12.70
2019-03-23T19:35:05.062Z,20.90
2019-03-23T19:37:34.875Z,15.93
2019-03-23T19:40:04.650Z,16.00
2019-03-23T19:42:33.167Z,14.10
2019-03-23T19:45:01.817Z,15.90
2019-03-23T19:47:30.425Z,12.77
2019-03-23T19:50:03.154Z,18.83
2019-03-23T19:52:33.483Z,15.67
2019-03-23T19:55:01.964Z,14.17
2019-03-23T19:57:30.723Z,17.77
2019-03-23T20:00:00.331Z,19.40
2019-03-23T20:02:32.438Z,19.60
2019-03-23T20:05:01.014Z,54.60
2019-03-23T20:07:33.370Z,44.50
2019-03-23T20:10:01.537Z,85.93
2019-03-23T20:12:30.256Z,137.97
2019-03-23T20:14:59.458Z,105.90
2019-03-23T20:17:28.396Z,86.37
2019-03-23T20:19:56.902Z,43.73
2019-03-23T20:22:26.963Z,42.07
2019-03-23T20:24:55.770Z,32.57
2019-03-23T20:27:26.079Z,24.63
2019-03-23T20:29:56.386Z,19.70
2019-03-23T20:32:25.038Z,13.20
2019-03-23T20:34:53.733Z,15.43
2019-03-23T20:37:22.239Z,13.87
2019-03-23T20:39:50.816Z,22.17
2019-03-23T20:42:19.549Z,14.13
2019-03-23T20:44:48.497Z,17.23
2019-03-23T20:47:17.354Z,14.90
2019-03-23T20:49:46.789Z,14.57
2019-03-23T20:52:15.429Z,18.83
2019-03-23T20:54:44.010Z,19.13
2019-03-23T20:57:23.188Z,15.43
2019-03-23T20:59:43.803Z,16.27
2019-03-23T21:02:13.266Z,16.47
2019-03-23T21:04:41.857Z,14.80
2019-03-23T21:07:12.073Z,17.33
2019-03-23T21:09:40.562Z,17.33
2019-03-23T21:12:09.838Z,19.17
2019-03-23T21:14:38.470Z,17.30
2019-03-23T21:17:06.982Z,24.10
2019-03-23T21:19:36.618Z,15.77
2019-03-23T21:22:05.305Z,19.00
2019-03-23T21:24:33.883Z,16.60
2019-03-23T21:27:03.014Z,19.07
2019-03-23T21:29:31.584Z,17.77
2019-03-23T21:32:00.162Z,17.80
2019-03-23T21:34:28.734Z,15.30
2019-03-23T21:36:57.326Z,15.60
2019-03-23T21:39:25.897Z,21.67
2019-03-23T21:41:54.746Z,18.37
2019-03-23T21:44:30.857Z,18.13
2019-03-23T21:46:53.647Z,15.00
2019-03-23T21:49:22.331Z,15.30
2019-03-23T21:51:51.235Z,17.03
2019-03-23T21:54:20.605Z,18.07
2019-03-23T21:56:49.115Z,19.03
2019-03-23T21:59:17.681Z,25.47
2019-03-23T22:01:46.970Z,21.47
2019-03-23T22:04:15.555Z,25.93
2019-03-23T22:06:44.130Z,17.47
2019-03-23T22:09:12.710Z,16.67
2019-03-23T22:11:41.562Z,19.87
2019-03-23T22:14:10.071Z,22.57
2019-03-23T22:16:38.697Z,13.97
2019-03-23T22:19:07.278Z,13.30
2019-03-23T22:21:35.843Z,20.20
2019-03-23T22:24:04.497Z,19.80
2019-03-23T22:26:32.977Z,18.60
2019-03-23T22:29:01.478Z,17.73
2019-03-23T22:31:29.968Z,20.83
2019-03-23T22:33:58.544Z,17.27
2019-03-23T22:36:27.037Z,20.53
2019-03-23T22:38:55.616Z,23.73
2019-03-23T22:41:24.537Z,21.97
2019-03-23T22:43:53.124Z,15.00
2019-03-23T22:46:21.810Z,25.80
2019-03-23T22:48:50.449Z,18.57
2019-03-23T22:51:19.018Z,16.63
2019-03-23T22:53:47.862Z,20.80
2019-03-23T22:56:16.430Z,17.00
2019-03-23T22:58:45.777Z,18.10
2019-03-23T23:01:14.510Z,21.83
2019-03-23T23:03:44.024Z,15.30
2019-03-23T23:06:13.370Z,21.60
2019-03-23T23:08:41.951Z,20.47
2019-03-23T23:11:10.803Z,21.77
2019-03-23T23:13:39.383Z,24.97
2019-03-23T23:16:07.873Z,18.90
2019-03-23T23:18:36.531Z,26.13
2019-03-23T23:21:05.432Z,27.87
2019-03-23T23:23:34.272Z,25.30
2019-03-23T23:26:02.834Z,17.50
2019-03-23T23:28:31.427Z,13.37
2019-03-23T23:30:59.999Z,22.43
2019-03-23T23:33:28.601Z,16.30
2019-03-23T23:35:58.488Z,15.17
2019-03-23T23:38:27.087Z,24.17
2019-03-23T23:40:55.640Z,18.20
2019-03-23T23:43:24.502Z,20.67
2019-03-23T23:45:53.070Z,28.40
2019-03-23T23:48:21.649Z,28.37
2019-03-23T23:50:50.207Z,22.17
2019-03-23T23:53:18.797Z,32.20
2019-03-23T23:55:47.370Z,30.10
2019-03-23T23:58:17.493Z,18.37
